Time;durP1;ratioP1;P1;durP2;ratioP2;P2;SDS_P1;SDS_P2;PMS_P1;PMS_P2;Temp;Humidity;BMP_temperature;BMP_pressure;BME280_temperature;BME280_humidity;BME280_pressure;Samples;Min_cycle;Max_cycle;Signal;HPM_P1;HPM_P2
2022/03/18 00:00:25;;;;;;;26.90;25.90;;;20.10;47.10;;;;;;5094807;28;20442;-55
2022/03/18 00:02:54;;;;;;;24.47;23.37;;;20.00;47.10;;;;;;5094350;28;20470;-54
2022/03/18 00:05:21;;;;;;;24.70;23.70;;;20.00;47.30;;;;;;5094739;28;20503;-57
2022/03/18 00:07:50;;;;;;;25.77;24.77;;;19.90;47.40;;;;;;5094504;28;20929;-52
2022/03/18 00:10:18;;;;;;;26.80;25.70;;;19.80;47.40;;;;;;5094589;28;20446;-58
2022/03/18 00:12:45;;;;;;;25.50;24.50;;;19.80;47.60;;;;;;5094300;28;20466;-57
2022/03/18 00:15:13;;;;;;;25.60;24.60;;;19.70;47.80;;;;;;5094507;28;20517;-54
2022/03/18 00:17:41;;;;;;;25.93;24.73;;;19.60;47.90;;;;;;5094379;28;20443;-55
2022/03/18 00:20:09;;;;;;;24.43;23.43;;;19.50;48.10;;;;;;5094331;28;20791;-53
2022/03/18 00:22:36;;;;;;;25.50;24.40;;;19.50;48.30;;;;;;5094164;28;20802;-52
2022/03/18 00:25:06;;;;;;;26.17;24.97;;;19.60;48.40;;;;;;5094361;28;20442;-54
2022/03/18 00:27:35;;;;;;;26.00;24.90;;;19.70;48.30;;;;;;5094272;28;21126;-55
2022/03/18 00:30:02;;;;;;;25.73;24.63;;;19.80;48.10;;;;;;5094370;28;20450;-55
2022/03/18 00:32:29;;;;;;;24.10;23.10;;;19.90;48.00;;;;;;5093915;28;20501;-54
2022/03/18 00:34:55;;;;;;;25.67;24.67;;;20.00;47.70;;;;;;5093940;28;20808;-58
2022/03/18 00:37:22;;;;;;;25.80;24.80;;;20.10;47.50;;;;;;5094070;28;20438;-52
2022/03/18 00:39:49;;;;;;;25.23;24.23;;;20.20;47.40;;;;;;5094025;28;20965;-53
2022/03/18 00:42:17;;;;;;;26.33;25.30;;;20.20;47.20;;;;;;5093800;28;20463;-56
2022/03/18 00:44:44;;;;;;;25.67;24.60;;;20.20;47.10;;;;;;5094094;28;21126;-56
2022/03/18 00:52:35;;;;;;;25.30;24.30;;;20.20;46.80;;;;;;5093487;28;20516;-58
2022/03/18 00:55:02;;;;;;;25.20;24.20;;;20.20;46.70;;;;;;5093870;28;20536;-52
2022/03/18 00:57:30;;;;;;;25.60;24.60;;;20.30;46.80;;;;;;5093673;28;20446;-57
2022/03/18 00:59:57;;;;;;;26.00;24.90;;;20.20;46.70;;;;;;5093698;28;20937;-51
2022/03/18 01:02:24;;;;;;;26.07;25.07;;;20.20;46.70;;;;;;5093305;28;20894;-56
2022/03/18 01:04:51;;;;;;;26.33;25.30;;;20.20;46.70;;;;;;5093001;28;20454;-52
2022/03/18 01:07:18;;;;;;;26.20;25.10;;;20.20;46.80;;;;;;5093434;28;20469;-58
2022/03/18 01:09:44;;;;;;;25.90;24.90;;;20.10;46.70;;;;;;5093528;28;20451;-57
2022/03/18 01:12:12;;;;;;;25.90;24.90;;;20.10;46.80;;;;;;5093157;28;20463;-56
2022/03/18 01:14:40;;;;;;;25.57;24.50;;;20.10;46.80;;;;;;5093377;28;20486;-57
2022/03/18 01:17:07;;;;;;;26.00;25.00;;;20.00;46.70;;;;;;5093378;28;20447;-53
2022/03/18 01:19:33;;;;;;;26.27;25.17;;;20.00;46.80;;;;;;5093043;28;20445;-55
2022/03/18 01:22:00;;;;;;;26.33;25.23;;;20.00;46.80;;;;;;5093102;28;20470;-55
2022/03/18 01:24:27;;;;;;;25.50;24.40;;;20.00;46.80;;;;;;5092879;28;20445;-57
2022/03/18 01:26:54;;;;;;;26.23;25.20;;;20.00;46.80;;;;;;5093153;28;20447;-57
2022/03/18 01:29:20;;;;;;;27.50;26.20;;;20.00;46.80;;;;;;5093025;28;20469;-56
2022/03/18 01:31:49;;;;;;;27.27;26.27;;;20.00;46.90;;;;;;5092986;28;20473;-56
2022/03/18 01:34:16;;;;;;;26.00;25.00;;;19.90;46.80;;;;;;5092455;28;20528;-56
2022/03/18 01:36:43;;;;;;;25.80;24.80;;;19.80;46.80;;;;;;5093087;28;20446;-56
2022/03/18 01:39:09;;;;;;;25.90;24.90;;;19.80;47.00;;;;;;5092486;28;20446;-51
2022/03/18 01:41:36;;;;;;;26.53;25.43;;;19.80;47.60;;;;;;5092902;28;20453;-57
2022/03/18 01:44:03;;;;;;;26.10;25.07;;;19.70;47.10;;;;;;5092562;28;20467;-55
2022/03/18 01:46:30;;;;;;;25.43;24.50;;;19.70;47.30;;;;;;5092855;28;20462;-55
2022/03/18 01:48:58;;;;;;;26.90;25.80;;;19.60;47.30;;;;;;5092507;28;20454;-56
2022/03/18 01:51:24;;;;;;;26.47;25.27;;;19.60;47.40;;;;;;5092812;28;20470;-53
2022/03/18 01:54:44;;;;;;;25.67;24.67;;;19.60;47.50;;;;;;5092416;28;20462;-55
2022/03/18 01:56:38;;;;;;;26.10;25.10;;;19.60;47.40;;;;;;5092576;28;20426;-55
2022/03/18 01:59:06;;;;;;;26.93;25.93;;;19.70;48.00;;;;;;5092450;28;20821;-56
2022/03/18 02:01:33;;;;;;;26.03;25.03;;;19.70;47.50;;;;;;5092423;28;20925;-55
2022/03/18 02:04:01;;;;;;;26.07;25.00;;;19.70;47.50;;;;;;5092118;28;20515;-55
2022/03/18 02:06:28;;;;;;;25.37;24.37;;;19.70;47.50;;;;;;5092516;28;20808;-56
2022/03/18 02:08:55;;;;;;;25.97;24.97;;;19.80;47.50;;;;;;5092140;28;20511;-52
2022/03/18 02:11:23;;;;;;;26.50;25.40;;;19.90;47.40;;;;;;5092101;28;20875;-52
2022/03/18 02:13:51;;;;;;;25.43;24.33;;;19.90;47.20;;;;;;5092447;28;20462;-53
2022/03/18 02:16:18;;;;;;;25.53;24.53;;;19.90;47.10;;;;;;5091261;28;20483;-55
2022/03/18 02:18:45;;;;;;;26.57;25.37;;;20.00;47.10;;;;;;5092046;28;20442;-54
2022/03/18 02:21:15;;;;;;;24.50;23.50;;;20.00;47.00;;;;;;5091991;28;20450;-56
2022/03/18 02:23:44;;;;;;;25.40;24.40;;;20.00;46.90;;;;;;5092177;28;20465;-57
2022/03/18 02:26:14;;;;;;;25.10;24.10;;;20.00;46.80;;;;;;5092124;28;20477;-55
2022/03/18 02:28:41;;;;;;;24.67;23.53;;;20.00;46.70;;;;;;5092169;28;20500;-53
2022/03/18 02:31:08;;;;;;;25.60;24.60;;;20.10;46.70;;;;;;5091694;28;20447;-57
2022/03/18 02:33:34;;;;;;;24.60;23.70;;;20.10;46.60;;;;;;5091952;28;20928;-57
2022/03/18 02:36:01;;;;;;;25.30;24.30;;;20.10;46.60;;;;;;5091902;28;20992;-57
2022/03/18 02:38:28;;;;;;;25.77;24.77;;;20.10;46.50;;;;;;5091671;28;20443;-57
2022/03/18 02:40:56;;;;;;;25.90;24.80;;;20.00;46.50;;;;;;5091629;28;20482;-55
2022/03/18 02:43:23;;;;;;;24.33;23.43;;;20.00;46.50;;;;;;5091720;28;20462;-56
2022/03/18 02:45:49;;;;;;;25.03;24.13;;;20.00;46.60;;;;;;5091426;28;20442;-55
2022/03/18 02:48:16;;;;;;;24.20;23.30;;;20.00;46.60;;;;;;5091499;28;20447;-56
2022/03/18 02:50:43;;;;;;;25.73;24.63;;;20.00;46.60;;;;;;5091437;28;20442;-57
2022/03/18 02:53:10;;;;;;;24.30;23.40;;;19.90;46.50;;;;;;5091568;28;20465;-57
2022/03/18 02:55:37;;;;;;;24.80;23.80;;;19.90;46.60;;;;;;5091657;28;20478;-57
2022/03/18 02:58:05;;;;;;;25.23;24.23;;;19.80;46.50;;;;;;5091396;28;20866;-57
2022/03/18 03:00:32;;;;;;;25.73;24.63;;;19.80;46.60;;;;;;5091465;28;20458;-55
2022/03/18 03:02:59;;;;;;;26.20;25.13;;;19.80;46.70;;;;;;5116076;22;20848;-47
2022/03/18 03:08:12;;;;;;;26.03;25.03;;;19.80;46.80;;;;;;5091636;28;20413;-47
2022/03/18 03:10:39;;;;;;;26.83;25.73;;;19.70;46.70;;;;;;5091635;28;20820;-47
2022/03/18 03:13:10;;;;;;;25.90;24.87;;;19.70;46.80;;;;;;5091248;28;20814;-52
2022/03/18 03:15:38;;;;;;;25.80;24.80;;;19.70;46.90;;;;;;5091580;28;20555;-47
2022/03/18 03:18:05;;;;;;;26.13;24.93;;;19.60;46.90;;;;;;5091374;28;20836;-48
2022/03/18 03:20:32;;;;;;;25.70;24.70;;;19.60;47.00;;;;;;5091508;28;20442;-47
2022/03/18 03:22:59;;;;;;;26.00;25.00;;;19.60;47.00;;;;;;5091273;28;20985;-47
2022/03/18 03:25:26;;;;;;;25.30;24.30;;;19.60;47.00;;;;;;5091434;28;20941;-47
2022/03/18 03:27:53;;;;;;;25.50;24.50;;;19.60;47.00;;;;;;5093471;28;20443;-47
2022/03/18 03:30:22;;;;;;;25.43;24.23;;;19.60;47.00;;;;;;5095429;28;20495;-47
2022/03/18 03:32:49;;;;;;;24.90;24.00;;;19.70;47.00;;;;;;5094583;28;20462;-50
2022/03/18 03:35:16;;;;;;;26.40;25.30;;;19.70;47.00;;;;;;5095009;28;20478;-47
2022/03/18 03:37:43;;;;;;;26.23;25.13;;;19.70;47.00;;;;;;5095269;28;20447;-51
2022/03/18 03:40:13;;;;;;;26.47;25.37;;;19.70;47.00;;;;;;5095312;28;20438;-47
2022/03/18 03:42:41;;;;;;;27.37;26.27;;;19.80;47.00;;;;;;5095269;28;20908;-47
2022/03/18 03:45:10;;;;;;;26.67;25.57;;;19.80;46.90;;;;;;5095133;28;20442;-47
2022/03/18 03:47:38;;;;;;;25.50;24.50;;;19.80;46.90;;;;;;5094983;28;20857;-47
2022/03/18 03:50:05;;;;;;;25.20;24.20;;;19.80;46.70;;;;;;5094550;28;20851;-53
2022/03/18 03:52:32;;;;;;;26.90;25.90;;;19.80;46.60;;;;;;5094976;28;20466;-48
2022/03/18 03:54:59;;;;;;;25.67;24.57;;;19.80;46.60;;;;;;5094963;28;20489;-52
2022/03/18 03:57:26;;;;;;;26.20;25.10;;;19.80;46.60;;;;;;5094785;28;20511;-46
2022/03/18 03:59:53;;;;;;;26.97;25.87;;;19.80;46.60;;;;;;5094555;28;20438;-46
2022/03/18 04:02:20;;;;;;;26.93;25.93;;;19.90;46.50;;;;;;5094678;28;20446;-49
2022/03/18 04:04:48;;;;;;;26.80;25.80;;;19.80;46.40;;;;;;5095000;28;20485;-46
2022/03/18 04:07:14;;;;;;;26.73;25.63;;;19.80;46.40;;;;;;5094699;28;20438;-47
2022/03/18 04:09:41;;;;;;;27.70;26.60;;;19.80;46.40;;;;;;5094454;28;20443;-46
2022/03/18 04:12:08;;;;;;;26.13;25.03;;;19.80;46.40;;;;;;5094582;28;20446;-47
2022/03/18 04:14:35;;;;;;;26.37;25.37;;;19.70;46.40;;;;;;5094641;28;20446;-46
2022/03/18 04:17:03;;;;;;;27.80;26.60;;;19.70;46.40;;;;;;5094436;28;20481;-50
2022/03/18 04:19:30;;;;;;;25.70;24.70;;;19.70;46.40;;;;;;5094134;28;20789;-46
2022/03/18 04:21:58;;;;;;;27.17;26.07;;;19.70;46.50;;;;;;5094457;28;20811;-47
2022/03/18 04:24:24;;;;;;;28.27;27.03;;;19.60;46.50;;;;;;5094480;28;21230;-47
2022/03/18 04:26:51;;;;;;;26.00;24.90;;;19.60;46.50;;;;;;5094509;28;20434;-46
2022/03/18 04:29:18;;;;;;;24.73;23.73;;;19.60;46.60;;;;;;5093998;28;20443;-51
2022/03/18 04:31:45;;;;;;;26.57;25.57;;;19.60;46.60;;;;;;5074019;28;20950;-47
2022/03/18 04:34:12;;;;;;;25.97;24.97;;;19.50;46.60;;;;;;5073997;28;20475;-47
2022/03/18 04:36:39;;;;;;;25.93;24.93;;;19.50;46.60;;;;;;5073987;28;20491;-46
2022/03/18 04:39:07;;;;;;;27.77;26.67;;;19.50;46.70;;;;;;5072686;28;20443;-47
2022/03/18 04:41:34;;;;;;;26.83;25.83;;;19.50;46.80;;;;;;5092821;28;20813;-48
2022/03/18 04:44:02;;;;;;;27.83;26.73;;;19.50;46.80;;;;;;5093959;28;20475;-46
2022/03/18 04:46:31;;;;;;;26.13;24.97;;;19.50;46.90;;;;;;5093948;28;20492;-54
2022/03/18 04:48:58;;;;;;;24.90;23.90;;;19.50;46.80;;;;;;5093690;28;20504;-48
2022/03/18 04:51:25;;;;;;;27.43;26.33;;;19.60;46.90;;;;;;5093654;28;20455;-48
2022/03/18 04:53:52;;;;;;;25.27;24.27;;;19.60;46.80;;;;;;5093633;28;20828;-46
2022/03/18 04:59:05;;;;;;;27.37;26.30;;;19.60;46.70;;;;;;5093629;28;20584;-49
2022/03/18 05:01:32;;;;;;;27.73;26.73;;;19.70;46.70;;;;;;5093533;28;20450;-47
2022/03/18 05:03:59;;;;;;;28.30;27.10;;;19.70;46.50;;;;;;5093677;28;20474;-47
2022/03/18 05:06:26;;;;;;;27.77;26.67;;;19.70;46.50;;;;;;5093608;28;20966;-48
2022/03/18 05:08:53;;;;;;;30.10;29.00;;;19.70;46.50;;;;;;5093384;28;20930;-47
2022/03/18 05:11:21;;;;;;;30.60;29.40;;;19.70;46.40;;;;;;5093266;28;20457;-46
2022/03/18 05:13:48;;;;;;;29.30;28.10;;;19.70;46.30;;;;;;5093283;28;20497;-47
2022/03/18 05:16:15;;;;;;;28.33;27.13;;;19.60;46.30;;;;;;5093473;28;20489;-46
2022/03/18 05:18:42;;;;;;;28.53;27.33;;;19.60;46.30;;;;;;5093187;28;20435;-47
2022/03/18 05:21:09;;;;;;;28.90;27.70;;;19.60;46.30;;;;;;5093069;28;21041;-46
2022/03/18 05:23:37;;;;;;;28.90;27.80;;;19.60;46.20;;;;;;5092957;28;20467;-47
2022/03/18 05:26:04;;;;;;;29.43;28.23;;;19.60;46.30;;;;;;5093185;28;20443;-51
2022/03/18 05:28:32;;;;;;;29.97;28.63;;;19.50;46.50;;;;;;5092946;28;20442;-47
2022/03/18 05:30:59;;;;;;;28.67;27.47;;;19.60;47.10;;;;;;5092987;28;20829;-48
2022/03/18 05:33:26;;;;;;;29.67;28.13;;;19.50;47.40;;;;;;5093015;28;20991;-53
2022/03/18 05:35:52;;;;;;;29.03;27.53;;;19.50;47.80;;;;;;5093041;28;20482;-46
2022/03/18 05:38:19;;;;;;;30.37;28.77;;;19.50;48.50;;;;;;5092803;28;20930;-48
2022/03/18 05:40:46;;;;;;;28.77;27.13;;;19.50;49.40;;;;;;5092698;28;20443;-50
2022/03/18 05:43:13;;;;;;;30.23;28.40;;;19.50;50.20;;;;;;5092699;28;20466;-47
2022/03/18 05:45:42;;;;;;;35.50;32.00;;;19.40;51.00;;;;;;5092518;28;20941;-47
2022/03/18 05:48:09;;;;;;;28.23;26.17;;;19.40;52.30;;;;;;5092173;28;20446;-47
2022/03/18 05:50:36;;;;;;;30.23;28.43;;;19.40;54.00;;;;;;5091943;28;20953;-47
2022/03/18 05:53:03;;;;;;;31.03;28.70;;;19.40;56.20;;;;;;5092655;28;20474;-49
2022/03/18 05:56:52;;;;;;;30.20;28.07;;;19.30;57.40;;;;;;5092725;28;20831;-46
2022/03/18 05:58:16;;;;;;;29.40;27.60;;;19.30;57.60;;;;;;5092419;28;20481;-47
2022/03/18 06:00:45;;;;;;;31.43;29.17;;;19.30;56.90;;;;;;5092458;28;20475;-48
2022/03/18 06:03:13;;;;;;;30.87;28.70;;;19.30;56.30;;;;;;5092249;28;20470;-48
2022/03/18 06:05:42;;;;;;;29.57;27.97;;;19.30;55.90;;;;;;5092495;28;20450;-49
2022/03/18 06:13:41;;;;;;;30.47;28.80;;;19.40;54.50;;;;;;5091623;28;20585;-49
2022/03/18 06:16:09;;;;;;;30.53;28.80;;;19.40;54.00;;;;;;5092231;28;20485;-47
2022/03/18 06:18:36;;;;;;;29.67;27.60;;;19.40;53.60;;;;;;5092042;28;20449;-48
2022/03/18 06:21:06;;;;;;;30.30;28.70;;;19.40;53.30;;;;;;5092081;28;20937;-53
2022/03/18 06:23:33;;;;;;;29.17;27.70;;;19.40;53.00;;;;;;5092060;28;20473;-47
2022/03/18 06:26:00;;;;;;;29.60;27.87;;;19.50;52.60;;;;;;5092045;28;20465;-50
2022/03/18 06:28:27;;;;;;;29.23;27.63;;;19.50;52.20;;;;;;5091769;28;20458;-49
2022/03/18 06:30:53;;;;;;;28.53;27.13;;;19.50;51.80;;;;;;5092009;28;20852;-53
2022/03/18 06:33:21;;;;;;;28.53;26.70;;;19.60;51.60;;;;;;5091987;28;20470;-51
2022/03/18 06:35:48;;;;;;;29.47;27.87;;;19.60;51.30;;;;;;5091957;28;20484;-47
2022/03/18 06:38:15;;;;;;;28.40;26.73;;;19.60;51.10;;;;;;5091781;28;20455;-46
2022/03/18 06:40:42;;;;;;;28.33;26.80;;;19.60;50.90;;;;;;5091767;28;20446;-49
2022/03/18 06:43:08;;;;;;;29.77;27.83;;;19.60;50.70;;;;;;5091748;28;20836;-46
2022/03/18 06:45:35;;;;;;;29.17;27.57;;;19.60;50.50;;;;;;5091880;28;20791;-46
2022/03/18 06:48:02;;;;;;;30.27;28.80;;;19.60;50.40;;;;;;5091650;28;20446;-52
2022/03/18 06:50:30;;;;;;;32.83;31.00;;;19.60;50.20;;;;;;5091761;28;20446;-48
2022/03/18 06:52:57;;;;;;;29.00;27.60;;;19.60;50.10;;;;;;5091685;28;20961;-46
2022/03/18 06:55:24;;;;;;;29.63;28.03;;;19.60;49.80;;;;;;5091698;28;20783;-51
2022/03/18 06:57:51;;;;;;;30.33;28.47;;;19.60;49.70;;;;;;5091462;28;20478;-50
2022/03/18 07:00:17;;;;;;;31.67;30.07;;;19.60;49.60;;;;;;5091505;28;20936;-47
2022/03/18 07:02:44;;;;;;;32.20;30.60;;;19.60;49.50;;;;;;5090967;28;20492;-48
2022/03/18 07:05:12;;;;;;;30.57;29.13;;;19.60;49.40;;;;;;5091575;28;20439;-47
2022/03/18 07:07:41;;;;;;;30.50;29.10;;;19.60;49.20;;;;;;5091465;28;20450;-49
2022/03/18 07:10:11;;;;;;;30.50;29.10;;;19.60;49.20;;;;;;5091419;28;20508;-51
2022/03/18 07:12:37;;;;;;;31.90;30.00;;;19.60;49.00;;;;;;5091641;28;20466;-48
2022/03/18 07:15:05;;;;;;;30.60;29.13;;;19.60;48.90;;;;;;5091512;28;20447;-46
2022/03/18 07:20:16;;;;;;;32.93;31.40;;;19.60;48.70;;;;;;5091459;28;20417;-50
2022/03/18 07:22:45;;;;;;;33.33;31.90;;;19.60;48.70;;;;;;5091435;28;20466;-46
2022/03/18 07:25:12;;;;;;;31.00;29.57;;;19.50;48.60;;;;;;5091437;28;20454;-47
2022/03/18 07:27:38;;;;;;;31.50;30.00;;;19.50;48.60;;;;;;5091474;28;20951;-46
2022/03/18 07:30:06;;;;;;;29.40;28.10;;;19.50;48.50;;;;;;5091317;28;20451;-46
2022/03/18 07:32:33;;;;;;;27.93;26.40;;;19.50;48.50;;;;;;5091251;28;20462;-49
2022/03/18 07:35:00;;;;;;;29.57;28.17;;;19.50;48.50;;;;;;5091229;28;20533;-47
2022/03/18 07:37:27;;;;;;;29.57;28.10;;;19.40;48.40;;;;;;5091036;28;20498;-46
2022/03/18 07:39:55;;;;;;;30.03;28.43;;;19.40;48.40;;;;;;5091164;28;20442;-49
2022/03/18 07:42:22;;;;;;;28.87;27.10;;;19.40;48.50;;;;;;5091257;28;20843;-46
2022/03/18 07:44:49;;;;;;;29.50;28.00;;;19.40;48.40;;;;;;5091229;28;20756;-46
2022/03/18 07:47:15;;;;;;;28.90;27.50;;;19.50;48.50;;;;;;5091075;28;20807;-48
2022/03/18 07:49:42;;;;;;;28.63;27.43;;;19.50;48.30;;;;;;5091108;28;20442;-46
2022/03/18 07:52:09;;;;;;;29.90;28.40;;;19.60;48.30;;;;;;5091166;28;20477;-50
2022/03/18 07:54:36;;;;;;;29.43;27.97;;;19.70;48.20;;;;;;5091153;28;20933;-46
2022/03/18 07:57:04;;;;;;;32.90;31.40;;;19.80;48.10;;;;;;5091059;28;21000;-45
2022/03/18 07:59:31;;;;;;;31.23;29.83;;;19.80;47.80;;;;;;5090896;28;20442;-45
2022/03/18 08:01:58;;;;;;;29.70;28.30;;;19.90;47.70;;;;;;5091064;28;20438;-49
2022/03/18 08:04:24;;;;;;;30.90;29.50;;;19.90;47.50;;;;;;5090844;28;20479;-45
2022/03/18 08:06:52;;;;;;;30.17;28.87;;;20.00;47.40;;;;;;5090975;28;20442;-45
2022/03/18 08:09:19;;;;;;;31.97;30.57;;;20.00;47.30;;;;;;5090777;28;20533;-45
2022/03/18 08:11:46;;;;;;;30.20;28.90;;;20.00;47.20;;;;;;5091190;28;20640;-45
2022/03/18 08:14:14;;;;;;;31.83;30.43;;;20.00;47.00;;;;;;5091654;28;20477;-45
2022/03/18 08:16:41;;;;;;;31.73;30.30;;;20.10;47.00;;;;;;5094557;28;20919;-46
2022/03/18 08:19:07;;;;;;;30.60;29.10;;;20.10;46.90;;;;;;5094317;28;20533;-45
2022/03/18 08:21:34;;;;;;;29.90;28.60;;;20.10;46.70;;;;;;5094537;28;20443;-49
2022/03/18 08:24:03;;;;;;;29.80;28.30;;;20.20;46.70;;;;;;5094414;28;20470;-45
2022/03/18 08:26:29;;;;;;;32.13;30.83;;;20.20;46.60;;;;;;5094404;28;20538;-45
2022/03/18 08:28:57;;;;;;;32.53;31.13;;;20.20;46.50;;;;;;5094163;28;20450;-45
2022/03/18 08:31:26;;;;;;;30.67;29.23;;;20.20;46.50;;;;;;5094392;28;20862;-46
2022/03/18 08:33:52;;;;;;;29.80;28.50;;;20.20;46.40;;;;;;5094315;28;20502;-50
2022/03/18 08:36:19;;;;;;;29.80;28.40;;;20.10;46.30;;;;;;5094034;28;20474;-47
2022/03/18 08:38:46;;;;;;;28.63;27.23;;;20.20;46.40;;;;;;5093923;28;20446;-47
2022/03/18 08:41:13;;;;;;;29.50;28.10;;;20.20;46.30;;;;;;5094322;28;20507;-48
2022/03/18 08:43:40;;;;;;;29.87;28.63;;;20.20;46.30;;;;;;5094271;28;20498;-46
2022/03/18 08:46:06;;;;;;;29.37;28.03;;;20.20;46.20;;;;;;5094036;28;20461;-47
2022/03/18 08:48:34;;;;;;;28.20;26.90;;;20.20;46.20;;;;;;5093738;28;20464;-47
2022/03/18 08:51:01;;;;;;;28.53;27.40;;;20.20;46.20;;;;;;5093983;28;20803;-46
2022/03/18 08:53:28;;;;;;;27.43;26.20;;;20.20;46.20;;;;;;5093759;28;20467;-45
2022/03/18 08:55:56;;;;;;;27.47;26.07;;;20.20;46.10;;;;;;5093793;28;20934;-51
2022/03/18 08:58:24;;;;;;;26.27;25.17;;;20.20;46.10;;;;;;5093667;28;20493;-45
2022/03/18 09:00:51;;;;;;;28.67;27.43;;;20.20;46.10;;;;;;5093665;28;20454;-51
2022/03/18 09:03:18;;;;;;;28.17;26.90;;;20.20;46.10;;;;;;5118206;22;20516;-48
2022/03/18 09:05:46;;;;;;;28.43;27.20;;;20.20;46.10;;;;;;5093743;28;20442;-48
2022/03/18 09:08:14;;;;;;;28.10;26.80;;;20.20;46.00;;;;;;5093456;28;20442;-48
2022/03/18 09:10:41;;;;;;;29.13;27.83;;;20.20;46.00;;;;;;5093727;28;20508;-54
2022/03/18 09:13:08;;;;;;;27.60;26.30;;;20.20;46.00;;;;;;5093474;28;20459;-50
2022/03/18 09:15:35;;;;;;;28.30;27.10;;;20.20;45.90;;;;;;5093462;28;20790;-50
2022/03/18 09:18:01;;;;;;;27.43;26.23;;;20.20;45.80;;;;;;5093270;28;20478;-53
2022/03/18 09:20:28;;;;;;;29.33;28.03;;;20.20;45.90;;;;;;5093348;28;20808;-48
2022/03/18 09:22:56;;;;;;;28.43;27.23;;;20.20;45.80;;;;;;5093158;28;20467;-49
2022/03/18 09:25:23;;;;;;;29.00;27.70;;;20.10;45.80;;;;;;5092978;28;20469;-49
2022/03/18 09:27:51;;;;;;;28.80;27.60;;;20.20;45.90;;;;;;5093080;28;20449;-48
2022/03/18 09:30:17;;;;;;;27.00;25.80;;;20.20;45.90;;;;;;5093115;28;20446;-48
2022/03/18 09:32:44;;;;;;;28.00;26.90;;;20.20;45.90;;;;;;5093308;28;20473;-51
2022/03/18 09:35:14;;;;;;;27.50;26.20;;;20.20;45.90;;;;;;5093142;28;20488;-48
2022/03/18 09:37:41;;;;;;;26.90;25.80;;;20.30;45.90;;;;;;5092787;28;20482;-50
2022/03/18 09:40:11;;;;;;;28.23;27.13;;;20.40;45.90;;;;;;5093093;28;20444;-48
2022/03/18 09:42:59;;;;;;;26.70;25.60;;;20.40;45.80;;;;;;5092924;28;20504;-47
2022/03/18 09:45:30;;;;;;;29.67;28.37;;;20.50;45.80;;;;;;5093090;28;20807;-47
2022/03/18 09:47:58;;;;;;;29.60;28.40;;;20.50;45.60;;;;;;5092939;28;20854;-54
2022/03/18 09:50:24;;;;;;;29.87;28.67;;;20.60;45.50;;;;;;5092800;28;20438;-50
2022/03/18 09:52:52;;;;;;;30.23;28.97;;;20.70;45.40;;;;;;5092784;28;20818;-48
2022/03/18 09:55:20;;;;;;;28.57;27.37;;;20.80;45.20;;;;;;5092722;28;20430;-52
2022/03/18 09:57:47;;;;;;;28.77;27.60;;;20.80;45.10;;;;;;5092428;28;20512;-53
2022/03/18 10:00:15;;;;;;;27.80;26.67;;;20.90;45.10;;;;;;5092583;28;20442;-48
2022/03/18 10:02:42;;;;;;;28.93;27.70;;;20.90;44.90;;;;;;5092446;28;20975;-48
2022/03/18 10:05:11;;;;;;;26.83;25.63;;;20.90;44.90;;;;;;5092630;28;20457;-52
2022/03/18 10:07:39;;;;;;;29.97;28.57;;;21.00;44.90;;;;;;5092390;28;20443;-48
2022/03/18 10:10:10;;;;;;;28.40;27.20;;;21.00;44.80;;;;;;5092461;28;20503;-46
2022/03/18 10:12:39;;;;;;;29.10;27.90;;;21.00;44.70;;;;;;5092360;28;20481;-47
2022/03/18 10:15:11;;;;;;;28.70;27.50;;;21.00;44.70;;;;;;5092596;28;20442;-47
2022/03/18 10:17:47;;;;;;;27.40;26.20;;;21.00;44.60;;;;;;5092127;28;20482;-48
2022/03/18 10:20:32;;;;;;;28.53;27.43;;;21.00;44.60;;;;;;5092226;28;20937;-47
2022/03/18 10:23:03;;;;;;;27.50;26.20;;;21.00;44.50;;;;;;5092374;28;20571;-45
2022/03/18 10:25:42;;;;;;;27.20;26.10;;;21.00;44.40;;;;;;5092281;28;20810;-48
2022/03/18 10:28:11;;;;;;;26.97;25.77;;;21.10;44.40;;;;;;5091996;28;20444;-48
2022/03/18 10:30:38;;;;;;;28.20;27.10;;;21.10;44.40;;;;;;5092185;28;20959;-51
2022/03/18 10:33:06;;;;;;;29.50;28.30;;;21.00;44.30;;;;;;5092129;28;20969;-46
2022/03/18 10:38:33;;;;;;;26.33;25.33;;;21.10;44.40;;;;;;5091234;28;20557;-48
2022/03/18 10:41:01;;;;;;;27.00;25.90;;;21.10;44.30;;;;;;5092007;28;20449;-53
2022/03/18 10:43:29;;;;;;;28.97;27.77;;;21.10;44.30;;;;;;5092021;28;21008;-51
2022/03/18 10:46:03;;;;;;;27.30;26.30;;;21.10;44.20;;;;;;5091980;28;20443;-48
2022/03/18 10:48:30;;;;;;;27.83;26.73;;;21.10;44.20;;;;;;5091689;28;20446;-52
2022/03/18 10:51:08;;;;;;;27.80;26.60;;;21.10;44.10;;;;;;5091971;28;20458;-48
2022/03/18 10:53:37;;;;;;;27.60;26.50;;;21.10;44.10;;;;;;5091816;28;20553;-49
2022/03/18 10:56:04;;;;;;;27.93;26.83;;;21.10;44.10;;;;;;5091884;28;20453;-47
2022/03/18 10:58:33;;;;;;;28.27;27.10;;;21.10;44.00;;;;;;5091500;28;20479;-49
2022/03/18 11:01:03;;;;;;;26.10;25.03;;;21.10;44.00;;;;;;5091891;28;20493;-50
2022/03/18 11:03:34;;;;;;;27.20;26.10;;;21.20;44.00;;;;;;5091757;28;20481;-52
2022/03/18 11:06:03;;;;;;;28.20;27.00;;;21.20;44.00;;;;;;5091749;28;20465;-48
2022/03/18 11:08:36;;;;;;;29.03;27.93;;;21.20;43.90;;;;;;5091426;28;20446;-48
2022/03/18 11:11:10;;;;;;;26.80;25.50;;;21.20;43.80;;;;;;5091848;28;20500;-49
2022/03/18 11:13:48;;;;;;;27.60;26.50;;;21.20;43.80;;;;;;5091693;28;20472;-49
2022/03/18 11:16:18;;;;;;;25.77;24.77;;;21.20;43.70;;;;;;5091698;28;20446;-52
2022/03/18 11:18:46;;;;;;;27.97;26.87;;;21.30;43.70;;;;;;5091311;28;20482;-51
2022/03/18 11:21:14;;;;;;;27.67;26.57;;;21.30;43.70;;;;;;5091184;28;20458;-52
2022/03/18 11:23:44;;;;;;;26.20;25.20;;;21.30;43.60;;;;;;5091477;28;20470;-48
2022/03/18 11:26:14;;;;;;;27.40;26.30;;;21.40;43.60;;;;;;5091361;28;20549;-47
2022/03/18 11:28:42;;;;;;;27.90;26.70;;;21.50;43.50;;;;;;5091476;28;20447;-48
2022/03/18 11:31:11;;;;;;;28.30;27.00;;;21.60;44.40;;;;;;5091301;28;20446;-49
2022/03/18 11:33:38;;;;;;;28.70;27.50;;;21.80;45.30;;;;;;5091254;28;20466;-48
2022/03/18 11:36:09;;;;;;;28.93;27.73;;;22.00;45.50;;;;;;5091496;28;20450;-50
2022/03/18 11:38:55;;;;;;;29.07;27.70;;;22.20;45.40;;;;;;5091259;28;20861;-47
2022/03/18 11:41:25;;;;;;;29.50;28.30;;;22.40;45.00;;;;;;5091116;28;20475;-49
2022/03/18 11:43:54;;;;;;;29.17;27.97;;;22.90;44.70;;;;;;5091303;28;20977;-47
2022/03/18 11:46:24;;;;;;;30.97;29.50;;;23.90;44.20;;;;;;5091270;28;20450;-47
2022/03/18 11:48:53;;;;;;;31.27;30.03;;;25.40;42.10;;;;;;5093001;28;20438;-49
2022/03/18 11:51:24;;;;;;;30.17;28.80;;;26.70;40.00;;;;;;5094632;28;20928;-52
2022/03/18 11:53:53;;;;;;;31.20;29.90;;;27.80;37.90;;;;;;5095074;28;20458;-47
2022/03/18 11:56:22;;;;;;;30.53;29.30;;;28.80;36.30;;;;;;5094781;28;20485;-47
2022/03/18 11:58:49;;;;;;;29.20;28.00;;;29.50;34.90;;;;;;5094746;28;20481;-49
2022/03/18 12:01:42;;;;;;;32.63;30.97;;;30.10;34.40;;;;;;5094815;28;20450;-49
2022/03/18 12:04:08;;;;;;;32.33;31.03;;;30.70;32.90;;;;;;5094513;28;20845;-50
2022/03/18 12:07:16;;;;;;;33.93;32.53;;;31.10;32.10;;;;;;5094788;28;20449;-50
2022/03/18 12:10:08;;;;;;;32.50;31.30;;;31.40;31.40;;;;;;5094509;28;20445;-47
2022/03/18 12:12:38;;;;;;;34.03;32.63;;;31.80;30.70;;;;;;5093953;28;20442;-47
2022/03/18 12:15:08;;;;;;;33.13;31.63;;;32.10;30.30;;;;;;5094627;28;20454;-49
2022/03/18 12:17:43;;;;;;;30.37;29.17;;;32.50;29.90;;;;;;5094323;28;20481;-50
2022/03/18 12:20:12;;;;;;;32.70;31.40;;;32.90;29.50;;;;;;5094517;28;20963;-47
2022/03/18 12:22:41;;;;;;;30.73;29.53;;;33.10;29.20;;;;;;5094408;28;20537;-47
2022/03/18 12:25:09;;;;;;;29.60;28.40;;;33.30;28.90;;;;;;5094536;28;20453;-47
2022/03/18 12:27:38;;;;;;;33.00;31.60;;;33.70;28.60;;;;;;5094392;28;20532;-47
2022/03/18 12:30:07;;;;;;;33.93;32.60;;;33.90;28.30;;;;;;5094317;28;20519;-47
2022/03/18 12:32:35;;;;;;;33.57;32.27;;;34.10;28.00;;;;;;5094293;28;20556;-48
2022/03/18 12:35:04;;;;;;;32.70;31.50;;;34.50;27.80;;;;;;5094191;28;20207;-49
2022/03/18 12:37:32;;;;;;;33.00;31.80;;;34.50;27.50;;;;;;5094159;28;20196;-51
2022/03/18 12:40:08;;;;;;;32.40;31.10;;;34.60;27.40;;;;;;5094361;28;20204;-49
2022/03/18 12:42:46;;;;;;;29.80;28.60;;;34.80;27.20;;;;;;5094109;28;20445;-47
2022/03/18 12:45:13;;;;;;;30.90;29.60;;;34.90;27.00;;;;;;5094318;28;20437;-47
2022/03/18 12:47:39;;;;;;;29.17;28.07;;;35.00;26.90;;;;;;5093809;28;20200;-47
2022/03/18 12:50:09;;;;;;;30.83;29.53;;;35.10;26.80;;;;;;5094010;28;20207;-47
2022/03/18 12:52:43;;;;;;;31.17;29.97;;;35.40;26.70;;;;;;5093847;28;20207;-50
2022/03/18 12:55:12;;;;;;;32.90;31.60;;;35.50;26.50;;;;;;5094003;28;20448;-47